Huvudsida
METAR-TAF:

METAR-TAF

Flygplatser :

Vidsels flygplats

Vidsel, Sverige

latitud: 65-52N, longitud: 020-08E, höjd: 180 m

Aktuellt väderrapport

Denna rapport gjordes för 35 minuter sedan, klockan 02:20 UTC
Stilla vind
Temperatur -1°C
Fuktighet 100%
Tryck 1014 hPa
Sikt 10 km eller mer

METAR: ESPE 190220Z AUTO 00000KT 9999 SCT032/// M01/M01 Q1014

Tid: 04:55 (02:55 UTC)

Väderprognos

Denna rapport gjordes för 15 timmar och 40 minuter sedan, klockan 11:15 UTC
Prognos gäller från 18 kl. 12 UTC till 18 kl. 15 UTC
Vind 2 kt varierande vindriktning
Sikt 10 km eller mer
Brutna moln på en höjd av 3000 ft
Temporärt
från 18 kl. 12 UTC till 18 kl. 15 UTC
Brutna moln på en höjd av 2000 ft, Cumulonimbus.
lätta regnskurar

TAF: ESPE 181115Z 1812/1815 VRB02KT 9999 BKN030 TEMPO 1812/1815 -SHRA BKN020CB RMK MIL

Aktuella väderrapporter och prognoser från 4000 flygplatser (METAR- och TAF-rapporter).

De tillgängliga stationerna syns som gula och röda prickar på kartan.

För musen över prickarna för att se namnen på stationerna.

Klicka sedan för att få väderrapporter och prognoser.

För att ändra kartan: Klicka på de gröna knapparna med ett svart kors på för att zooma in; den gröna knappen med ett streck på för att zooma ut; eller på de gröna pilarna för angränsande kartor.


METAR-TAF: